Weather at Molde Heliport, Hospital

Public forecast

Using degrees Celsius for public forecast. Weather courtesy of forecast.io.

Closest aviation weather report (METAR) to Molde Heliport, Hospital

Closest report is Molde Airport, Årø, 3.5 nm (6.5 km) E.

2024/05/30 07:20 (retrieved 10 minutes ago)

ENML 300720Z 09005KT 9999 FEW020 16/10 Q1009

Closest aviation forecast (TAF) to Molde Heliport, Hospital

Closest forecast is Ørland Airport, 88.3 nm (163.5 km) NE.

2024/05/30 06:36 (retrieved 54 minutes ago)

TAF ENOL 300500Z 3006/3106 07005KT 9999 FEW015 BECMG 3009/3011 36012KT BECMG 3014/3016 FEW030CB BKN055 PROB30 TEMPO 3016/3024 TSRA BECMG 3019/3021 VRB03KT